createdAt,value
2022-12-12T00:03:45.333Z,101394.19
2022-12-12T00:08:51.391Z,101393.78
2022-12-12T00:13:56.083Z,101391.06
2022-12-12T00:19:01.832Z,101412.56
2022-12-12T00:24:06.817Z,101412.78
2022-12-12T00:29:12.778Z,101419.19
2022-12-12T00:34:18.603Z,101428.41
2022-12-12T00:39:25.095Z,101440.06
2022-12-12T00:44:29.726Z,101435.44
2022-12-12T00:49:35.566Z,101439.97
2022-12-12T00:54:40.143Z,101438.75
2022-12-12T00:59:44.777Z,101447.66
2022-12-12T01:04:49.494Z,101446.38
2022-12-12T01:09:55.102Z,101450.41
2022-12-12T01:14:59.976Z,101457.16
2022-12-12T01:20:05.375Z,101462.34
2022-12-12T01:25:11.968Z,101442.13
2022-12-12T01:30:19.842Z,101447.69
2022-12-12T01:35:25.861Z,101449.28
2022-12-12T01:40:33.815Z,101450.69
2022-12-12T01:46:09.748Z,101442.84
2022-12-12T01:51:16.587Z,101455.78
2022-12-12T01:56:22.972Z,101440.03
2022-12-12T02:01:28.074Z,101442.69
2022-12-12T02:06:33.173Z,101450.66
2022-12-12T02:11:45.680Z,101457.31
2022-12-12T02:16:56.814Z,101459.91
2022-12-12T02:22:28.031Z,101441.84
2022-12-12T02:27:32.493Z,101442.06
2022-12-12T02:33:19.144Z,101433.28
2022-12-12T02:38:45.910Z,101436.22
2022-12-12T02:44:27.168Z,101431.13
2022-12-12T02:49:37.761Z,101437.75
2022-12-12T02:54:42.866Z,101426.81
2022-12-12T03:00:19.684Z,101414.50
2022-12-12T03:06:18.039Z,101414.06
2022-12-12T03:11:39.616Z,101396.53
2022-12-12T03:16:57.182Z,101378.16
2022-12-12T03:22:20.357Z,101373.72
2022-12-12T03:27:49.310Z,101381.84
2022-12-12T03:33:27.305Z,101367.00
2022-12-12T03:38:39.725Z,101371.19
2022-12-12T03:43:57.630Z,101362.06
2022-12-12T03:49:06.079Z,101338.72
2022-12-12T03:54:26.079Z,101326.75
2022-12-12T03:59:43.455Z,101306.59
2022-12-12T04:05:07.737Z,101314.00
2022-12-12T04:10:30.838Z,101280.50
2022-12-12T04:15:35.818Z,101285.94
2022-12-12T04:21:03.086Z,101264.78
2022-12-12T04:26:31.917Z,101250.66
2022-12-12T04:31:48.345Z,101237.47
2022-12-12T04:36:52.856Z,101238.06
2022-12-12T04:42:02.337Z,101222.16
2022-12-12T04:47:09.616Z,101212.91
2022-12-12T04:52:16.192Z,101214.31
2022-12-12T04:57:29.715Z,101208.13
2022-12-12T05:02:46.730Z,101209.88
2022-12-12T05:08:11.174Z,101204.25
2022-12-12T05:13:21.492Z,101211.31
2022-12-12T05:18:27.689Z,101211.03
2022-12-12T05:23:34.835Z,101199.88
2022-12-12T05:28:40.282Z,101198.09
2022-12-12T05:33:46.406Z,101193.91
2022-12-12T05:38:51.962Z,101184.72
2022-12-12T05:43:56.918Z,101204.16
2022-12-12T05:49:01.758Z,101197.75
2022-12-12T05:54:07.083Z,101187.41
2022-12-12T05:59:12.407Z,101197.75
2022-12-12T06:04:17.767Z,101192.72
2022-12-12T06:09:23.305Z,101200.81
2022-12-12T06:14:28.371Z,101218.19
2022-12-12T06:19:33.542Z,101199.63
2022-12-12T06:24:38.614Z,101186.75
2022-12-12T06:29:43.802Z,101195.00
2022-12-12T06:34:49.033Z,101186.09
2022-12-12T06:39:54.345Z,101207.44
2022-12-12T06:44:59.595Z,101189.88
2022-12-12T06:50:04.632Z,101201.22
2022-12-12T06:55:10.552Z,101197.69
2022-12-12T07:00:16.482Z,101192.63
2022-12-12T07:05:22.096Z,101203.88
2022-12-12T07:10:27.330Z,101208.59
2022-12-12T07:15:32.865Z,101197.78
2022-12-12T07:20:41.894Z,101199.03
2022-12-12T07:25:47.459Z,101203.66
2022-12-12T07:30:52.910Z,101212.47
2022-12-12T07:36:01.771Z,101193.91
2022-12-12T07:41:13.066Z,101197.22
2022-12-12T07:46:24.584Z,101207.47
2022-12-12T07:51:31.277Z,101213.13
2022-12-12T07:56:36.426Z,101222.34
2022-12-12T08:01:41.866Z,101245.84
2022-12-12T08:06:47.210Z,101241.78
2022-12-12T08:11:52.790Z,101228.56
2022-12-12T08:16:58.029Z,101234.91
2022-12-12T08:22:03.153Z,101228.69
2022-12-12T08:27:13.734Z,101240.50
2022-12-12T08:32:20.801Z,101241.56
2022-12-12T08:37:26.281Z,101244.47
2022-12-12T08:42:30.989Z,101259.53
2022-12-12T08:47:35.925Z,101259.13
2022-12-12T08:52:40.893Z,101270.31
2022-12-12T08:57:45.880Z,101297.91
2022-12-12T09:02:50.910Z,101283.31
2022-12-12T09:07:56.491Z,101277.69
2022-12-12T09:13:02.444Z,101309.03
2022-12-12T09:18:08.023Z,101308.56
2022-12-12T09:23:12.915Z,101286.63
2022-12-12T09:28:19.892Z,101294.50
2022-12-12T09:33:24.854Z,101310.94
2022-12-12T09:38:30.133Z,101319.75
2022-12-12T09:44:09.686Z,101318.34
2022-12-12T09:49:37.182Z,101324.44
2022-12-12T09:54:47.338Z,101317.97
2022-12-12T10:00:08.255Z,101326.53
2022-12-12T10:05:32.307Z,101324.09
2022-12-12T10:10:45.916Z,101325.13
2022-12-12T10:16:01.304Z,101320.38
2022-12-12T10:21:07.303Z,101330.81
2022-12-12T10:26:25.908Z,101323.31
2022-12-12T10:31:57.909Z,101329.41
2022-12-12T10:37:24.206Z,101324.28
2022-12-12T10:43:06.559Z,101325.47
2022-12-12T10:48:11.598Z,101327.00
2022-12-12T10:53:16.508Z,101337.63
2022-12-12T10:58:27.166Z,101340.28
2022-12-12T11:03:42.252Z,101326.41
2022-12-12T11:09:02.412Z,101330.03
2022-12-12T11:14:25.829Z,101322.34
2022-12-12T11:19:41.712Z,101325.94
2022-12-12T11:24:49.232Z,101321.81
2022-12-12T11:29:57.757Z,101327.31
2022-12-12T11:35:06.660Z,101330.84
2022-12-12T11:40:28.590Z,101336.41
2022-12-12T11:45:33.476Z,101322.94
2022-12-12T11:50:47.844Z,101311.94
2022-12-12T11:55:58.923Z,101310.84
2022-12-12T12:01:14.497Z,101321.34
2022-12-12T12:06:54.137Z,101312.66
2022-12-12T12:12:13.995Z,101315.81
2022-12-12T12:17:32.633Z,101321.28
2022-12-12T12:23:02.791Z,101323.34
2022-12-12T12:28:13.736Z,101312.16
2022-12-12T12:33:26.993Z,101318.03
2022-12-12T12:38:51.891Z,101308.22
2022-12-12T12:44:23.591Z,101306.19
2022-12-12T12:49:35.702Z,101307.59
2022-12-12T12:54:48.615Z,101302.81
2022-12-12T13:00:01.470Z,101317.75
2022-12-12T13:05:22.613Z,101322.28
2022-12-12T13:10:33.398Z,101351.88
2022-12-12T13:16:09.617Z,101320.16
2022-12-12T13:21:24.666Z,101323.00
2022-12-12T13:26:28.748Z,101319.56
2022-12-12T13:31:32.962Z,101325.84
2022-12-12T13:36:42.685Z,101326.88
2022-12-12T13:42:12.346Z,101320.16
2022-12-12T13:47:27.236Z,101310.03
2022-12-12T13:52:44.901Z,101326.47
2022-12-12T13:58:03.658Z,101336.22
2022-12-12T14:03:14.447Z,101333.78
2022-12-12T14:08:19.675Z,101341.63
2022-12-12T14:13:24.527Z,101346.00
2022-12-12T14:18:32.380Z,101349.50
2022-12-12T14:23:51.052Z,101347.84
2022-12-12T14:29:18.001Z,101336.66
2022-12-12T14:34:51.012Z,101333.16
2022-12-12T14:40:11.440Z,101339.44
2022-12-12T14:45:51.011Z,101342.69
2022-12-12T14:51:27.529Z,101339.28
2022-12-12T14:56:53.623Z,101334.13
2022-12-12T15:02:20.433Z,101340.09
2022-12-12T15:07:30.084Z,101336.59
2022-12-12T15:12:37.146Z,101329.34
2022-12-12T15:17:51.937Z,101338.19
2022-12-12T15:23:02.861Z,101337.00
2022-12-12T15:28:08.032Z,101336.47
2022-12-12T15:33:27.283Z,101342.19
2022-12-12T15:38:32.559Z,101360.88
2022-12-12T15:43:38.597Z,101358.69
2022-12-12T15:48:53.818Z,101358.25
2022-12-12T15:53:58.910Z,101393.34
2022-12-12T15:59:06.608Z,101388.22
2022-12-12T16:04:11.382Z,101382.19
2022-12-12T16:09:27.893Z,101389.09
2022-12-12T16:14:42.542Z,101396.03
2022-12-12T16:19:58.812Z,101420.44
2022-12-12T16:25:38.464Z,101406.50
2022-12-12T16:30:45.337Z,101426.59
2022-12-12T16:35:50.258Z,101401.28
2022-12-12T16:40:58.249Z,101417.31
2022-12-12T16:46:03.198Z,101429.28
2022-12-12T16:51:10.591Z,101431.19
2022-12-12T16:56:15.342Z,101455.53
2022-12-12T17:01:22.682Z,101454.31
2022-12-12T17:06:27.286Z,101480.06
2022-12-12T17:11:31.967Z,101448.31
2022-12-12T17:16:36.565Z,101457.06
2022-12-12T17:21:41.253Z,101443.53
2022-12-12T17:26:45.957Z,101440.22
2022-12-12T17:31:51.685Z,101455.00
2022-12-12T17:36:55.747Z,101454.09
2022-12-12T17:42:00.467Z,101463.84
2022-12-12T17:47:04.533Z,101454.34
2022-12-12T17:52:09.147Z,101454.41
2022-12-12T17:57:14.684Z,101451.13
2022-12-12T18:02:19.316Z,101460.72
2022-12-12T18:07:23.973Z,101476.38
2022-12-12T18:12:29.655Z,101482.69
2022-12-12T18:17:34.136Z,101491.59
2022-12-12T18:22:38.679Z,101494.50
2022-12-12T18:27:43.280Z,101499.00
2022-12-12T18:32:47.846Z,101506.72
2022-12-12T18:37:52.404Z,101511.44
2022-12-12T18:42:57.344Z,101517.34
2022-12-12T18:48:01.884Z,101520.97
2022-12-12T18:53:06.527Z,101522.59
2022-12-12T18:58:12.262Z,101532.38
2022-12-12T19:03:16.860Z,101536.91
2022-12-12T19:08:21.463Z,101536.03
2022-12-12T19:13:27.209Z,101522.41
2022-12-12T19:18:31.767Z,101528.63
2022-12-12T19:23:37.596Z,101531.38
2022-12-12T19:28:42.422Z,101558.25
2022-12-12T19:33:49.085Z,101553.16
2022-12-12T19:38:55.687Z,101559.34
2022-12-12T19:44:06.032Z,101563.63
2022-12-12T19:49:13.400Z,101568.28
2022-12-12T19:54:22.047Z,101563.22
2022-12-12T19:59:26.581Z,101574.47
2022-12-12T20:04:31.366Z,101578.84
2022-12-12T20:09:37.411Z,101592.75
2022-12-12T20:14:42.124Z,101587.88
2022-12-12T20:19:49.928Z,101607.31
2022-12-12T20:24:54.564Z,101632.00
2022-12-12T20:29:58.666Z,101617.59
2022-12-12T20:35:02.704Z,101620.31
2022-12-12T20:40:07.094Z,101617.00
2022-12-12T20:45:12.341Z,101651.56
2022-12-12T20:50:17.851Z,101645.91
2022-12-12T20:55:22.419Z,101668.22
2022-12-12T21:00:27.743Z,101674.59
2022-12-12T21:05:32.441Z,101705.66
2022-12-12T21:10:37.039Z,101686.00
2022-12-12T21:15:41.704Z,101682.69
2022-12-12T21:20:46.898Z,101687.06
2022-12-12T21:25:51.459Z,101696.88
2022-12-12T21:30:56.026Z,101709.00
2022-12-12T21:36:09.467Z,101699.50
2022-12-12T21:41:17.141Z,101698.03
2022-12-12T21:46:25.115Z,101711.94
2022-12-12T21:51:29.679Z,101722.34
2022-12-12T21:56:34.817Z,101775.66
2022-12-12T22:01:40.237Z,101757.97
2022-12-12T22:06:48.597Z,101775.91
2022-12-12T22:12:03.030Z,101788.91
2022-12-12T22:17:08.849Z,101797.66
2022-12-12T22:22:14.498Z,101802.75
2022-12-12T22:27:19.101Z,101808.06
2022-12-12T22:32:23.763Z,101857.84
2022-12-12T22:37:28.354Z,101821.09
2022-12-12T22:42:32.948Z,101846.81
2022-12-12T22:47:38.585Z,101852.88
2022-12-12T22:52:43.124Z,101862.47
2022-12-12T22:57:49.536Z,101877.13
2022-12-12T23:02:54.096Z,101883.25
2022-12-12T23:07:58.871Z,101893.66
2022-12-12T23:13:03.433Z,101895.50
2022-12-12T23:18:07.969Z,101905.69
2022-12-12T23:23:13.671Z,101911.75
2022-12-12T23:28:17.674Z,101921.22
2022-12-12T23:33:22.260Z,101939.25
2022-12-12T23:38:26.922Z,101950.44
2022-12-12T23:43:31.580Z,101993.31
2022-12-12T23:48:36.700Z,101966.78
2022-12-12T23:53:41.262Z,101977.06
2022-12-12T23:58:46.015Z,101971.06
